Terminal Aerodrome Forecast
Issued by NWS

Home | Current Version | Previous Version | Text Only | Print | Product List | Glossary On
Versions: 1 2 3 4 5 6 7 8 9 10 11 12 13
529
FTUS45 KVEF 051132
TAFEED
TAF
KEED 051132Z 0512/0612 20008KT P6SM SCT250
     FM051700 19018G30KT P6SM SCT250
     FM060300 22014G22KT P6SM BKN250
     FM060800 21011KT P6SM BKN250=

USA.gov is the U.S. government's official web portal to all federal, state and local government web resources and services.